Time;durP1;ratioP1;P1;durP2;ratioP2;P2;SDS_P1;SDS_P2;PMS_P1;PMS_P2;Temp;Humidity;BMP_temperature;BMP_pressure;BME280_temperature;BME280_humidity;BME280_pressure;Samples;Min_cycle;Max_cycle;Signal;HPM_P1;HPM_P2
2021/09/25 00:00:31;;;;;;;19.50;10.75;;;;;;;;;;5041400;28;20032;-75
2021/09/25 00:03:01;;;;;;;21.45;11.63;;;;;;;;;;5033394;28;20120;-73
2021/09/25 00:05:29;;;;;;;23.50;12.68;;;;;;;;;;5038916;28;20497;-75
2021/09/25 00:07:55;;;;;;;23.83;12.10;;;;;;;;;;5033092;28;20473;-75
2021/09/25 00:10:21;;;;;;;26.17;13.15;;;;;;;;;;5028665;28;20126;-75
2021/09/25 00:12:47;;;;;;;20.20;12.98;;;;;;;;;;5040229;28;20123;-75
2021/09/25 00:15:13;;;;;;;22.02;12.50;;;;;;;;;;5033877;28;20547;-76
2021/09/25 00:17:39;;;;;;;23.88;11.40;;;;;;;;;;5043159;28;20089;-75
2021/09/25 00:20:06;;;;;;;22.45;11.13;;;;;;;;;;5030047;28;20033;-75
2021/09/25 00:22:32;;;;;;;18.73;10.52;;;;;;;;;;5037574;28;20555;-75
2021/09/25 00:24:57;;;;;;;18.83;11.32;;;;;;;;;;5040287;28;20125;-75
2021/09/25 00:27:24;;;;;;;19.35;10.02;;;;;;;;;;5043688;28;20122;-75
2021/09/25 00:29:50;;;;;;;17.00;10.05;;;;;;;;;;5042424;28;20049;-73
2021/09/25 00:32:16;;;;;;;13.05;8.63;;;;;;;;;;5037707;28;20044;-74
2021/09/25 00:34:42;;;;;;;17.17;8.38;;;;;;;;;;5044249;28;20028;-74
2021/09/25 00:37:07;;;;;;;16.73;9.35;;;;;;;;;;5038616;28;20038;-76
2021/09/25 00:39:33;;;;;;;14.35;8.20;;;;;;;;;;5036603;28;20033;-75
2021/09/25 00:41:58;;;;;;;16.58;8.73;;;;;;;;;;5044111;28;20028;-74
2021/09/25 00:44:24;;;;;;;18.00;9.35;;;;;;;;;;5038260;28;20037;-74
2021/09/25 00:46:50;;;;;;;14.73;8.82;;;;;;;;;;5043980;28;20036;-74
2021/09/25 00:49:19;;;;;;;15.20;9.27;;;;;;;;;;5036564;28;20206;-75
2021/09/25 00:51:48;;;;;;;20.70;9.63;;;;;;;;;;5032043;28;20033;-74
2021/09/25 00:54:14;;;;;;;19.05;9.30;;;;;;;;;;5039917;28;20033;-74
2021/09/25 00:56:44;;;;;;;14.68;8.73;;;;;;;;;;5032914;28;20033;-73
2021/09/25 00:59:11;;;;;;;15.75;8.70;;;;;;;;;;5042284;28;20036;-73
2021/09/25 01:01:37;;;;;;;15.73;8.95;;;;;;;;;;5037066;28;20025;-74
2021/09/25 01:04:04;;;;;;;14.18;8.77;;;;;;;;;;5042011;28;20029;-73
2021/09/25 01:06:29;;;;;;;15.13;9.07;;;;;;;;;;5036308;28;20034;-73
2021/09/25 01:08:55;;;;;;;20.77;9.18;;;;;;;;;;5042111;28;20047;-74
2021/09/25 01:11:20;;;;;;;15.95;8.80;;;;;;;;;;5019288;28;20127;-73
2021/09/25 01:13:46;;;;;;;14.52;8.98;;;;;;;;;;5043038;28;20087;-74
2021/09/25 01:16:11;;;;;;;15.07;8.68;;;;;;;;;;5044082;28;20475;-74
2021/09/25 01:18:37;;;;;;;17.15;9.85;;;;;;;;;;5024020;28;20104;-74
2021/09/25 01:21:09;;;;;;;16.75;9.10;;;;;;;;;;5037496;28;20033;-73
2021/09/25 01:23:35;;;;;;;15.18;9.10;;;;;;;;;;5032421;28;20029;-72
2021/09/25 01:26:03;;;;;;;16.95;9.85;;;;;;;;;;5022847;28;20041;-73
2021/09/25 01:28:29;;;;;;;13.73;8.68;;;;;;;;;;5030323;28;20119;-72
2021/09/25 01:30:55;;;;;;;14.80;9.10;;;;;;;;;;5042874;28;20082;-72
2021/09/25 01:33:33;;;;;;;18.42;9.27;;;;;;;;;;5036026;28;20033;-71
2021/09/25 01:35:59;;;;;;;17.30;8.98;;;;;;;;;;5042381;28;20116;-70
2021/09/25 01:38:25;;;;;;;15.85;9.65;;;;;;;;;;5046931;28;20148;-70
2021/09/25 01:40:51;;;;;;;16.95;9.43;;;;;;;;;;5039771;28;20040;-73
2021/09/25 01:43:16;;;;;;;19.20;9.02;;;;;;;;;;5037461;28;20037;-72
2021/09/25 01:45:46;;;;;;;15.23;9.18;;;;;;;;;;5047941;28;20025;-72
2021/09/25 01:48:12;;;;;;;19.60;9.15;;;;;;;;;;5038236;28;20033;-71
2021/09/25 01:50:39;;;;;;;40.55;11.63;;;;;;;;;;5039977;28;20103;-75
2021/09/25 01:53:04;;;;;;;17.70;10.25;;;;;;;;;;5037326;28;20349;-75
2021/09/25 01:55:30;;;;;;;22.23;10.65;;;;;;;;;;5036715;28;20041;-74
2021/09/25 01:57:56;;;;;;;20.38;10.48;;;;;;;;;;5040561;28;20540;-72
2021/09/25 02:00:24;;;;;;;14.90;9.70;;;;;;;;;;5036244;28;20386;-74
2021/09/25 02:02:51;;;;;;;17.30;9.75;;;;;;;;;;5042121;28;20037;-74
2021/09/25 02:05:17;;;;;;;18.60;10.55;;;;;;;;;;5037319;28;20049;-73
2021/09/25 02:07:44;;;;;;;27.10;10.63;;;;;;;;;;5040965;28;20043;-73
2021/09/25 02:10:11;;;;;;;17.40;10.52;;;;;;;;;;5031177;28;20044;-73
2021/09/25 02:12:37;;;;;;;23.80;10.55;;;;;;;;;;5043244;28;20472;-72
2021/09/25 02:15:05;;;;;;;21.13;10.77;;;;;;;;;;5040869;28;20035;-74
2021/09/25 02:17:31;;;;;;;14.00;9.13;;;;;;;;;;5038139;28;20037;-73
2021/09/25 02:19:57;;;;;;;21.05;10.00;;;;;;;;;;5034291;28;20132;-73
2021/09/25 02:22:22;;;;;;;18.90;9.93;;;;;;;;;;5039474;28;20481;-73
2021/09/25 02:24:48;;;;;;;17.50;10.40;;;;;;;;;;5034772;28;20117;-74
2021/09/25 02:27:13;;;;;;;15.15;9.95;;;;;;;;;;5034709;28;20049;-74
2021/09/25 02:29:39;;;;;;;18.58;11.18;;;;;;;;;;5039477;28;20095;-74
2021/09/25 02:32:05;;;;;;;24.23;10.75;;;;;;;;;;5035677;28;20056;-72
2021/09/25 02:34:32;;;;;;;20.52;9.75;;;;;;;;;;5040834;28;20024;-72
2021/09/25 02:36:57;;;;;;;31.13;10.45;;;;;;;;;;5041760;28;20036;-73
2021/09/25 02:39:25;;;;;;;21.35;10.45;;;;;;;;;;5036262;28;20033;-71
2021/09/25 02:41:50;;;;;;;18.92;10.88;;;;;;;;;;5029507;28;20106;-73
2021/09/25 02:44:16;;;;;;;17.15;10.30;;;;;;;;;;5037535;28;20084;-74
2021/09/25 02:46:42;;;;;;;15.77;9.38;;;;;;;;;;5041403;28;20040;-72
2021/09/25 02:49:07;;;;;;;24.25;10.57;;;;;;;;;;5036512;28;20039;-72
2021/09/25 02:51:32;;;;;;;18.83;9.60;;;;;;;;;;5040113;28;20483;-71
2021/09/25 02:53:58;;;;;;;19.95;10.25;;;;;;;;;;5035233;28;20037;-71
2021/09/25 02:56:23;;;;;;;19.50;10.88;;;;;;;;;;5032487;28;20036;-73
2021/09/25 02:58:49;;;;;;;16.85;10.07;;;;;;;;;;5036059;28;20496;-72
2021/09/25 03:01:14;;;;;;;17.95;10.13;;;;;;;;;;5033819;28;20037;-72
2021/09/25 03:03:40;;;;;;;20.90;10.77;;;;;;;;;;5040136;28;20142;-71
2021/09/25 03:06:05;;;;;;;18.83;10.73;;;;;;;;;;5033779;28;20510;-72
2021/09/25 03:08:31;;;;;;;17.73;10.57;;;;;;;;;;5035576;28;20033;-72
2021/09/25 03:10:56;;;;;;;19.67;11.73;;;;;;;;;;5028753;28;20366;-71
2021/09/25 03:13:22;;;;;;;19.25;10.57;;;;;;;;;;5041268;28;20120;-71
2021/09/25 03:15:47;;;;;;;19.27;10.00;;;;;;;;;;5034417;28;20021;-72
2021/09/25 03:18:13;;;;;;;17.38;9.93;;;;;;;;;;5039659;28;20037;-72
2021/09/25 03:20:38;;;;;;;19.90;10.30;;;;;;;;;;5033877;28;20297;-72
2021/09/25 03:23:04;;;;;;;20.50;10.15;;;;;;;;;;5039135;28;20104;-72
2021/09/25 03:25:30;;;;;;;17.30;9.85;;;;;;;;;;5038284;28;20032;-71
2021/09/25 03:27:55;;;;;;;18.48;10.15;;;;;;;;;;5034825;28;20096;-72
2021/09/25 03:30:22;;;;;;;19.77;11.05;;;;;;;;;;5038440;28;20051;-72
2021/09/25 03:32:47;;;;;;;25.23;11.10;;;;;;;;;;5034852;28;20462;-73
2021/09/25 03:35:13;;;;;;;17.73;10.38;;;;;;;;;;5034107;28;20028;-72
2021/09/25 03:37:39;;;;;;;21.33;10.80;;;;;;;;;;5035072;28;20048;-71
2021/09/25 03:40:06;;;;;;;18.35;11.00;;;;;;;;;;5034640;28;20131;-73
2021/09/25 03:42:32;;;;;;;17.80;9.95;;;;;;;;;;5037174;28;20424;-74
2021/09/25 03:44:57;;;;;;;18.73;10.07;;;;;;;;;;5039331;28;20036;-73
2021/09/25 03:47:23;;;;;;;21.80;10.65;;;;;;;;;;5034769;28;20254;-73
2021/09/25 03:49:49;;;;;;;14.88;9.55;;;;;;;;;;5038648;28;20039;-73
2021/09/25 03:52:14;;;;;;;15.43;9.77;;;;;;;;;;5034891;28;20071;-73
2021/09/25 03:54:40;;;;;;;16.70;10.23;;;;;;;;;;5034702;28;20025;-74
2021/09/25 03:57:05;;;;;;;55.38;11.75;;;;;;;;;;5031488;28;20035;-73
2021/09/25 03:59:31;;;;;;;19.75;12.35;;;;;;;;;;5037863;28;20633;-72
2021/09/25 04:01:57;;;;;;;20.38;11.27;;;;;;;;;;5041155;28;20083;-73
2021/09/25 04:04:22;;;;;;;19.55;10.98;;;;;;;;;;5042257;28;20413;-72
2021/09/25 04:06:48;;;;;;;18.52;10.55;;;;;;;;;;5039034;28;20033;-71
2021/09/25 04:09:13;;;;;;;17.70;11.50;;;;;;;;;;5037710;28;20469;-72
2021/09/25 04:11:39;;;;;;;23.30;10.70;;;;;;;;;;5041856;28;20021;-71
2021/09/25 04:14:04;;;;;;;18.30;10.65;;;;;;;;;;5037436;28;20041;-73
2021/09/25 04:16:30;;;;;;;21.90;11.55;;;;;;;;;;5038465;28;20021;-75
2021/09/25 04:18:56;;;;;;;15.13;10.40;;;;;;;;;;5037594;28;20436;-76
2021/09/25 04:21:21;;;;;;;16.02;9.60;;;;;;;;;;5036273;28;20268;-75
2021/09/25 04:23:47;;;;;;;17.95;9.23;;;;;;;;;;5039582;28;20543;-75
2021/09/25 04:26:12;;;;;;;17.52;10.45;;;;;;;;;;5031636;28;20476;-75
2021/09/25 04:28:38;;;;;;;17.40;10.90;;;;;;;;;;5037103;28;20124;-75
2021/09/25 04:31:04;;;;;;;16.48;9.27;;;;;;;;;;5039487;28;20028;-74
2021/09/25 04:33:29;;;;;;;23.85;14.63;;;;;;;;;;5037171;28;20516;-75
2021/09/25 04:35:56;;;;;;;23.88;10.68;;;;;;;;;;5035440;28;20386;-75
2021/09/25 04:38:21;;;;;;;17.35;9.32;;;;;;;;;;5020796;28;20029;-74
2021/09/25 04:40:48;;;;;;;20.90;14.27;;;;;;;;;;5032347;28;20465;-75
2021/09/25 04:43:13;;;;;;;19.58;11.32;;;;;;;;;;5033589;28;20331;-76
2021/09/25 04:45:39;;;;;;;15.38;9.25;;;;;;;;;;5035412;28;20061;-75
2021/09/25 04:48:04;;;;;;;18.27;10.43;;;;;;;;;;5037713;28;20487;-72
2021/09/25 04:50:30;;;;;;;20.30;10.07;;;;;;;;;;5036173;28;20448;-75
2021/09/25 04:53:11;;;;;;;20.17;10.55;;;;;;;;;;5038950;28;20033;-75
2021/09/25 04:55:37;;;;;;;17.40;10.80;;;;;;;;;;5030982;28;20548;-76
2021/09/25 04:58:03;;;;;;;20.23;10.98;;;;;;;;;;5035951;28;20069;-74
2021/09/25 05:00:29;;;;;;;29.70;11.98;;;;;;;;;;5038445;28;20446;-75
2021/09/25 05:02:55;;;;;;;17.27;10.13;;;;;;;;;;5035318;28;20056;-74
2021/09/25 05:05:21;;;;;;;19.83;10.30;;;;;;;;;;5036422;28;20028;-75
2021/09/25 05:07:46;;;;;;;17.92;10.90;;;;;;;;;;5039413;28;20033;-75
2021/09/25 05:10:12;;;;;;;18.85;9.95;;;;;;;;;;5036601;28;20071;-75
2021/09/25 05:12:37;;;;;;;19.52;9.75;;;;;;;;;;5039364;28;20040;-74
2021/09/25 05:15:03;;;;;;;16.05;10.40;;;;;;;;;;5040177;28;20036;-75
2021/09/25 05:17:29;;;;;;;18.63;10.27;;;;;;;;;;5040269;28;20079;-76
2021/09/25 05:19:54;;;;;;;15.52;9.55;;;;;;;;;;5047356;28;20112;-75
2021/09/25 05:22:20;;;;;;;18.17;9.43;;;;;;;;;;5039641;28;20025;-75
2021/09/25 05:24:45;;;;;;;12.98;8.77;;;;;;;;;;5034002;28;20029;-75
2021/09/25 05:27:12;;;;;;;17.80;10.15;;;;;;;;;;5025161;28;20489;-74
2021/09/25 05:29:38;;;;;;;17.80;9.98;;;;;;;;;;5039859;28;20099;-74
2021/09/25 05:32:05;;;;;;;15.73;9.57;;;;;;;;;;5022592;28;20425;-74
2021/09/25 05:34:31;;;;;;;18.83;10.38;;;;;;;;;;5035906;28;20395;-75
2021/09/25 05:36:57;;;;;;;19.83;8.52;;;;;;;;;;5037299;28;20037;-75
2021/09/25 05:39:23;;;;;;;13.57;9.18;;;;;;;;;;5038675;28;20040;-73
2021/09/25 05:41:49;;;;;;;17.33;9.40;;;;;;;;;;5035896;28;20378;-75
2021/09/25 05:44:14;;;;;;;17.77;9.18;;;;;;;;;;5040369;28;20116;-74
2021/09/25 05:46:40;;;;;;;12.63;9.10;;;;;;;;;;5039965;28;20037;-75
2021/09/25 05:49:05;;;;;;;17.33;9.75;;;;;;;;;;5037404;28;20041;-73
2021/09/25 05:51:31;;;;;;;17.83;10.82;;;;;;;;;;5040531;28;20033;-75
2021/09/25 05:53:56;;;;;;;17.75;10.10;;;;;;;;;;5037720;28;20038;-74
2021/09/25 05:56:22;;;;;;;14.40;9.40;;;;;;;;;;5045632;28;20035;-75
2021/09/25 05:58:47;;;;;;;22.63;9.43;;;;;;;;;;5031252;28;20382;-74
2021/09/25 06:01:13;;;;;;;15.35;9.13;;;;;;;;;;5040507;28;20061;-73
2021/09/25 06:03:39;;;;;;;13.20;8.88;;;;;;;;;;5043052;28;20295;-73
2021/09/25 06:06:04;;;;;;;19.67;10.50;;;;;;;;;;5037582;28;20044;-73
2021/09/25 06:08:30;;;;;;;18.75;8.85;;;;;;;;;;5040454;28;20031;-73
2021/09/25 06:10:55;;;;;;;19.23;9.25;;;;;;;;;;5037887;28;20037;-74
2021/09/25 06:13:21;;;;;;;21.65;11.70;;;;;;;;;;5041749;28;20531;-74
2021/09/25 06:15:47;;;;;;;13.65;9.10;;;;;;;;;;5043991;28;20029;-74
2021/09/25 06:18:15;;;;;;;30.60;10.18;;;;;;;;;;5034335;28;20133;-73
2021/09/25 06:20:41;;;;;;;15.85;9.50;;;;;;;;;;5038341;28;20025;-74
2021/09/25 06:23:07;;;;;;;22.20;9.45;;;;;;;;;;5042117;28;20033;-74
2021/09/25 06:25:33;;;;;;;19.23;10.20;;;;;;;;;;5036779;28;20030;-73
2021/09/25 06:27:58;;;;;;;19.65;9.93;;;;;;;;;;5038863;28;20434;-72
2021/09/25 06:30:24;;;;;;;15.45;8.95;;;;;;;;;;5041993;28;20041;-72
2021/09/25 06:32:50;;;;;;;25.33;16.73;;;;;;;;;;5036482;28;20037;-73
2021/09/25 06:35:16;;;;;;;16.45;9.18;;;;;;;;;;5049868;28;20384;-72
2021/09/25 06:37:43;;;;;;;13.55;9.18;;;;;;;;;;5037638;28;20033;-73
2021/09/25 06:40:10;;;;;;;15.13;8.07;;;;;;;;;;5023702;28;20041;-74
2021/09/25 06:42:37;;;;;;;14.55;7.80;;;;;;;;;;5035464;28;20388;-72
2021/09/25 06:45:04;;;;;;;15.30;8.35;;;;;;;;;;5037775;28;20114;-72
2021/09/25 06:47:30;;;;;;;15.90;8.02;;;;;;;;;;5043361;28;20025;-73
2021/09/25 06:49:55;;;;;;;16.40;8.23;;;;;;;;;;5041652;28;20040;-72
2021/09/25 06:52:21;;;;;;;16.08;8.07;;;;;;;;;;5042962;28;20064;-73
2021/09/25 06:54:46;;;;;;;13.18;9.20;;;;;;;;;;5036365;28;20128;-73
2021/09/25 06:57:12;;;;;;;14.57;9.25;;;;;;;;;;5029479;28;20120;-73
2021/09/25 06:59:38;;;;;;;13.05;8.07;;;;;;;;;;5038727;28;20056;-73
2021/09/25 07:02:04;;;;;;;12.50;7.97;;;;;;;;;;5041265;28;20472;-74
2021/09/25 07:04:30;;;;;;;12.73;7.65;;;;;;;;;;5030852;28;20087;-74
2021/09/25 07:06:55;;;;;;;12.82;8.20;;;;;;;;;;5042874;28;20452;-75
2021/09/25 07:09:21;;;;;;;13.80;7.82;;;;;;;;;;5041662;28;20037;-74
2021/09/25 07:11:46;;;;;;;13.00;7.60;;;;;;;;;;5030530;28;20384;-73
2021/09/25 07:14:12;;;;;;;14.15;8.40;;;;;;;;;;5021822;28;20037;-73
2021/09/25 07:16:37;;;;;;;12.50;7.50;;;;;;;;;;5042777;28;20025;-73
2021/09/25 07:19:06;;;;;;;13.13;7.78;;;;;;;;;;5042024;28;20396;-73
2021/09/25 07:21:32;;;;;;;13.57;7.05;;;;;;;;;;5041849;28;20036;-73
2021/09/25 07:23:58;;;;;;;11.45;6.93;;;;;;;;;;5034921;28;20060;-72
2021/09/25 07:26:23;;;;;;;11.15;7.15;;;;;;;;;;5037325;28;20496;-72
2021/09/25 07:28:49;;;;;;;12.27;7.15;;;;;;;;;;5034466;28;20037;-73
2021/09/25 07:31:15;;;;;;;12.77;6.63;;;;;;;;;;5029103;28;20427;-73
2021/09/25 07:33:41;;;;;;;11.02;7.63;;;;;;;;;;5040271;28;20039;-74
2021/09/25 07:36:07;;;;;;;12.65;7.05;;;;;;;;;;5041926;28;20028;-73
2021/09/25 07:38:33;;;;;;;10.25;6.43;;;;;;;;;;5036488;28;20377;-74
2021/09/25 07:40:58;;;;;;;10.38;6.05;;;;;;;;;;5039588;28;20068;-76
2021/09/25 07:43:25;;;;;;;16.45;7.70;;;;;;;;;;5034851;28;20036;-76
2021/09/25 07:45:51;;;;;;;11.88;7.00;;;;;;;;;;5032208;28;20036;-74
2021/09/25 07:48:16;;;;;;;11.48;6.78;;;;;;;;;;5036645;28;20033;-75
2021/09/25 07:50:42;;;;;;;11.70;6.13;;;;;;;;;;5039942;28;20036;-75
2021/09/25 07:53:08;;;;;;;9.65;6.53;;;;;;;;;;5036653;28;20041;-75
2021/09/25 07:55:34;;;;;;;12.00;6.85;;;;;;;;;;5034034;28;20040;-75
2021/09/25 07:58:03;;;;;;;11.05;6.15;;;;;;;;;;5042002;28;20036;-75
2021/09/25 08:00:29;;;;;;;9.90;6.70;;;;;;;;;;5030411;28;20049;-73
2021/09/25 08:02:55;;;;;;;11.68;6.82;;;;;;;;;;5037672;28;20029;-75
2021/09/25 08:05:20;;;;;;;13.07;6.13;;;;;;;;;;5036548;28;20494;-74
2021/09/25 08:07:46;;;;;;;15.20;7.90;;;;;;;;;;5037147;28;20082;-74
2021/09/25 08:10:14;;;;;;;12.27;6.70;;;;;;;;;;5036873;28;20461;-75
2021/09/25 08:12:39;;;;;;;10.60;5.85;;;;;;;;;;5037049;28;20030;-74
2021/09/25 08:15:07;;;;;;;9.27;6.22;;;;;;;;;;5037623;28;20029;-75
2021/09/25 08:17:33;;;;;;;9.38;6.07;;;;;;;;;;5038024;28;20044;-75
2021/09/25 08:19:58;;;;;;;14.02;6.88;;;;;;;;;;5034850;28;20029;-76
2021/09/25 08:22:24;;;;;;;11.65;5.65;;;;;;;;;;5033715;28;20033;-76
2021/09/25 08:24:50;;;;;;;9.68;6.15;;;;;;;;;;5033899;28;20065;-75
2021/09/25 08:27:17;;;;;;;14.20;7.47;;;;;;;;;;5037209;28;20036;-74
2021/09/25 08:29:43;;;;;;;11.07;6.50;;;;;;;;;;5032550;28;20440;-75
2021/09/25 08:32:09;;;;;;;7.90;5.53;;;;;;;;;;5039885;28;20071;-74
2021/09/25 08:34:35;;;;;;;7.90;5.22;;;;;;;;;;5037809;28;20025;-75
2021/09/25 08:37:01;;;;;;;7.32;5.60;;;;;;;;;;5037386;28;20484;-75
2021/09/25 08:39:28;;;;;;;10.90;6.15;;;;;;;;;;5038842;28;20040;-76
2021/09/25 08:41:54;;;;;;;8.50;4.85;;;;;;;;;;5037684;28;20518;-75
2021/09/25 08:44:21;;;;;;;9.35;3.95;;;;;;;;;;5039773;28;20100;-74
2021/09/25 08:46:47;;;;;;;9.15;4.43;;;;;;;;;;5040383;28;20017;-74
2021/09/25 08:49:12;;;;;;;8.45;4.93;;;;;;;;;;5039729;28;20025;-74
2021/09/25 08:51:38;;;;;;;6.45;3.67;;;;;;;;;;5039803;28;21783;-74
2021/09/25 08:54:04;;;;;;;7.35;3.53;;;;;;;;;;5041634;28;20045;-74
2021/09/25 08:56:30;;;;;;;6.75;3.55;;;;;;;;;;5030405;28;20074;-74
2021/09/25 08:58:57;;;;;;;7.40;3.78;;;;;;;;;;5041223;28;20025;-73
2021/09/25 09:01:25;;;;;;;5.28;3.72;;;;;;;;;;5044031;28;20033;-74
2021/09/25 09:03:52;;;;;;;7.45;3.30;;;;;;;;;;5038826;28;20033;-76
2021/09/25 09:06:30;;;;;;;8.68;3.58;;;;;;;;;;5035609;28;20017;-74
2021/09/25 09:08:59;;;;;;;7.80;3.65;;;;;;;;;;5039914;28;20044;-75
2021/09/25 09:11:25;;;;;;;6.40;3.45;;;;;;;;;;5034401;28;20068;-75
2021/09/25 09:13:53;;;;;;;7.22;3.75;;;;;;;;;;5040545;28;20024;-75
2021/09/25 09:16:20;;;;;;;8.43;4.00;;;;;;;;;;5039274;28;20033;-75
2021/09/25 09:18:47;;;;;;;9.70;4.25;;;;;;;;;;5039483;28;20027;-74
2021/09/25 09:21:30;;;;;;;8.82;3.72;;;;;;;;;;5038916;28;20040;-74
2021/09/25 09:24:00;;;;;;;9.50;4.07;;;;;;;;;;5041849;28;20147;-74
2021/09/25 09:26:31;;;;;;;10.65;4.28;;;;;;;;;;5028609;28;20119;-75
2021/09/25 09:28:59;;;;;;;9.48;7.63;;;;;;;;;;5038992;28;20068;-74
2021/09/25 09:31:26;;;;;;;7.32;3.92;;;;;;;;;;5036041;28;20094;-74
2021/09/25 09:33:55;;;;;;;7.43;4.38;;;;;;;;;;5051030;28;20443;-75
2021/09/25 09:36:25;;;;;;;9.43;4.15;;;;;;;;;;5050636;28;20043;-76
2021/09/25 09:39:02;;;;;;;5.32;4.30;;;;;;;;;;5050242;28;20024;-75
2021/09/25 09:41:39;;;;;;;9.18;4.70;;;;;;;;;;5050189;28;20029;-75
2021/09/25 09:44:09;;;;;;;16.45;4.68;;;;;;;;;;5050127;28;20074;-75
2021/09/25 09:47:06;;;;;;;8.07;3.95;;;;;;;;;;5049473;28;20408;-75
2021/09/25 09:49:39;;;;;;;9.27;4.68;;;;;;;;;;5042156;28;20036;-75
2021/09/25 09:52:13;;;;;;;8.32;4.85;;;;;;;;;;5049004;28;20048;-76
2021/09/25 09:54:45;;;;;;;9.38;4.32;;;;;;;;;;5032939;28;20032;-76
2021/09/25 09:57:17;;;;;;;7.95;3.83;;;;;;;;;;5050956;28;20020;-75
2021/09/25 09:59:44;;;;;;;6.75;4.43;;;;;;;;;;5049388;28;20059;-76
2021/09/25 10:02:10;;;;;;;8.25;6.47;;;;;;;;;;5049936;28;20035;-75
2021/09/25 10:04:37;;;;;;;10.23;4.88;;;;;;;;;;5049118;28;20656;-76
2021/09/25 10:07:03;;;;;;;8.98;4.70;;;;;;;;;;5048380;28;20021;-73
2021/09/25 10:09:32;;;;;;;10.68;4.60;;;;;;;;;;5047191;28;20112;-75
2021/09/25 10:12:10;;;;;;;11.60;4.55;;;;;;;;;;5049597;28;20029;-75
2021/09/25 10:14:39;;;;;;;8.05;4.35;;;;;;;;;;5050012;28;20111;-75
2021/09/25 10:17:08;;;;;;;8.30;4.55;;;;;;;;;;5050773;28;20159;-76
2021/09/25 10:19:35;;;;;;;8.88;4.55;;;;;;;;;;5049549;28;20029;-74
2021/09/25 10:22:03;;;;;;;7.50;4.13;;;;;;;;;;5050879;28;20020;-75
2021/09/25 10:24:46;;;;;;;10.43;4.00;;;;;;;;;;5050702;28;20392;-75
2021/09/25 10:27:14;;;;;;;6.78;4.55;;;;;;;;;;5050829;28;20024;-76
2021/09/25 10:29:48;;;;;;;6.95;4.47;;;;;;;;;;5048731;28;20083;-74
2021/09/25 10:32:26;;;;;;;13.65;5.53;;;;;;;;;;5050092;28;20393;-74
2021/09/25 10:35:09;;;;;;;17.13;5.15;;;;;;;;;;5050396;28;20024;-74
2021/09/25 10:37:42;;;;;;;7.60;4.43;;;;;;;;;;5050454;28;20067;-75
2021/09/25 10:40:14;;;;;;;6.68;4.35;;;;;;;;;;5048824;28;20366;-74
2021/09/25 10:42:41;;;;;;;8.23;4.35;;;;;;;;;;5049146;28;20029;-74
2021/09/25 10:45:12;;;;;;;9.02;4.53;;;;;;;;;;5050242;28;20377;-74
2021/09/25 10:47:39;;;;;;;6.60;4.65;;;;;;;;;;5048988;28;20032;-74
2021/09/25 10:50:14;;;;;;;11.98;4.97;;;;;;;;;;5049163;28;20075;-74
2021/09/25 10:52:52;;;;;;;7.43;4.85;;;;;;;;;;5050267;28;20493;-75
2021/09/25 10:55:28;;;;;;;10.50;5.40;;;;;;;;;;5050009;28;20469;-76
2021/09/25 10:58:24;;;;;;;8.07;4.35;;;;;;;;;;5050222;28;20100;-74
2021/09/25 11:01:04;;;;;;;8.85;4.65;;;;;;;;;;5048980;28;20422;-76
2021/09/25 11:03:42;;;;;;;10.35;5.05;;;;;;;;;;5048890;28;20031;-76
2021/09/25 11:06:26;;;;;;;6.78;4.47;;;;;;;;;;5048687;28;20112;-76
2021/09/25 11:08:58;;;;;;;9.25;5.00;;;;;;;;;;5050123;28;20032;-75
2021/09/25 11:11:47;;;;;;;8.80;4.78;;;;;;;;;;5050303;28;20472;-74
2021/09/25 11:14:15;;;;;;;11.13;4.30;;;;;;;;;;5058860;28;20036;-75
2021/09/25 11:17:17;;;;;;;10.70;5.78;;;;;;;;;;5049795;28;20021;-75
2021/09/25 11:19:58;;;;;;;9.15;4.30;;;;;;;;;;5050415;28;20029;-75
2021/09/25 11:22:29;;;;;;;7.97;5.07;;;;;;;;;;5027316;28;20477;-75
2021/09/25 11:25:08;;;;;;;6.95;4.05;;;;;;;;;;5030402;28;20052;-74
2021/09/25 11:27:38;;;;;;;13.88;5.07;;;;;;;;;;5028493;28;20512;-74
2021/09/25 11:30:09;;;;;;;8.80;5.03;;;;;;;;;;5028097;28;20056;-75
2021/09/25 11:32:44;;;;;;;9.30;4.88;;;;;;;;;;5028068;28;20026;-75
2021/09/25 11:35:13;;;;;;;12.82;5.72;;;;;;;;;;5027628;28;20047;-74
2021/09/25 11:37:58;;;;;;;6.50;4.70;;;;;;;;;;5028189;28;20059;-76
2021/09/25 11:40:28;;;;;;;5.78;4.38;;;;;;;;;;5029144;28;20246;-76
2021/09/25 11:43:08;;;;;;;6.05;3.90;;;;;;;;;;5029301;28;20478;-74
2021/09/25 11:45:41;;;;;;;9.50;4.78;;;;;;;;;;5030072;28;20025;-76
2021/09/25 11:48:10;;;;;;;7.30;4.20;;;;;;;;;;5027866;28;20033;-75
2021/09/25 11:50:41;;;;;;;11.55;4.88;;;;;;;;;;5027901;28;20026;-75
2021/09/25 11:53:13;;;;;;;6.28;4.35;;;;;;;;;;5029019;28;20092;-75
2021/09/25 11:55:40;;;;;;;6.65;4.43;;;;;;;;;;5028221;28;20030;-74
2021/09/25 11:58:14;;;;;;;6.03;4.57;;;;;;;;;;5029434;28;20033;-75
2021/09/25 12:00:46;;;;;;;6.85;4.72;;;;;;;;;;5029420;28;20017;-74
2021/09/25 12:03:13;;;;;;;9.70;5.00;;;;;;;;;;5029264;28;20021;-74
2021/09/25 12:05:49;;;;;;;6.60;4.07;;;;;;;;;;5027521;28;20128;-75
2021/09/25 12:08:18;;;;;;;6.38;4.20;;;;;;;;;;5011435;28;20428;-74
2021/09/25 12:10:51;;;;;;;11.88;4.28;;;;;;;;;;5027876;28;20033;-74
2021/09/25 12:13:21;;;;;;;8.80;4.63;;;;;;;;;;5029054;28;20393;-74
2021/09/25 12:15:49;;;;;;;7.82;4.50;;;;;;;;;;5029639;28;20025;-75
2021/09/25 12:18:21;;;;;;;9.38;4.72;;;;;;;;;;5035540;28;20032;-74
2021/09/25 12:21:03;;;;;;;12.27;4.32;;;;;;;;;;5032640;28;20033;-74
2021/09/25 12:23:44;;;;;;;12.75;4.60;;;;;;;;;;5033127;28;20032;-74
2021/09/25 12:26:20;;;;;;;10.02;4.18;;;;;;;;;;5031771;28;20029;-73
2021/09/25 12:28:54;;;;;;;8.85;4.03;;;;;;;;;;5031418;28;20072;-75
2021/09/25 12:31:28;;;;;;;8.25;4.40;;;;;;;;;;5031283;28;20083;-75
2021/09/25 12:33:59;;;;;;;8.80;4.50;;;;;;;;;;5033100;28;20028;-74
2021/09/25 12:36:31;;;;;;;11.18;4.18;;;;;;;;;;5031358;28;20434;-75
2021/09/25 12:39:06;;;;;;;10.10;4.53;;;;;;;;;;5031341;28;20376;-74
2021/09/25 12:41:32;;;;;;;8.13;4.13;;;;;;;;;;5032722;28;20021;-74
2021/09/25 12:44:02;;;;;;;6.47;3.90;;;;;;;;;;5031129;28;20124;-74
2021/09/25 12:46:34;;;;;;;16.55;7.78;;;;;;;;;;5032364;28;20071;-74
2021/09/25 12:49:07;;;;;;;69.80;64.07;;;;;;;;;;5032321;28;20028;-74
2021/09/25 12:51:38;;;;;;;7.95;4.55;;;;;;;;;;5032541;28;20044;-75
2021/09/25 12:54:09;;;;;;;10.82;5.05;;;;;;;;;;5031599;28;20550;-75
2021/09/25 12:56:50;;;;;;;16.13;6.40;;;;;;;;;;5031511;28;20175;-74
2021/09/25 12:59:18;;;;;;;13.93;4.82;;;;;;;;;;5032550;28;20025;-74
2021/09/25 13:01:49;;;;;;;12.88;4.90;;;;;;;;;;5031324;28;20352;-75
2021/09/25 13:04:38;;;;;;;277.38;23.65;;;;;;;;;;5030922;28;20108;-75
2021/09/25 13:07:04;;;;;;;10.50;4.25;;;;;;;;;;5030660;28;20037;-74
2021/09/25 13:09:53;;;;;;;10.82;4.72;;;;;;;;;;5032007;28;20053;-73
2021/09/25 13:12:31;;;;;;;9.18;4.35;;;;;;;;;;5032258;28;20037;-74
2021/09/25 13:15:05;;;;;;;8.75;3.97;;;;;;;;;;5030923;28;20532;-74
2021/09/25 13:17:33;;;;;;;7.72;5.07;;;;;;;;;;5030718;28;20032;-73
2021/09/25 13:19:59;;;;;;;6.80;4.90;;;;;;;;;;5030869;28;20029;-74
2021/09/25 13:22:24;;;;;;;12.30;4.93;;;;;;;;;;5031935;28;20071;-74
2021/09/25 13:24:50;;;;;;;10.43;5.15;;;;;;;;;;5031105;28;20166;-74
2021/09/25 13:27:17;;;;;;;9.60;5.25;;;;;;;;;;5031075;28;20476;-74
2021/09/25 13:29:43;;;;;;;9.48;5.25;;;;;;;;;;5014314;28;20085;-74
2021/09/25 13:32:09;;;;;;;15.50;6.03;;;;;;;;;;5014075;28;20140;-73
2021/09/25 13:34:35;;;;;;;12.93;4.70;;;;;;;;;;5030218;28;20389;-75
2021/09/25 13:37:01;;;;;;;10.00;4.70;;;;;;;;;;5030264;28;20566;-74
2021/09/25 13:39:27;;;;;;;8.32;5.20;;;;;;;;;;5030248;28;20029;-74
2021/09/25 13:41:54;;;;;;;10.50;4.82;;;;;;;;;;5031976;28;20026;-74
2021/09/25 13:44:20;;;;;;;11.50;4.78;;;;;;;;;;5030277;28;20031;-76
2021/09/25 13:46:46;;;;;;;9.85;5.03;;;;;;;;;;5030217;28;20025;-76
2021/09/25 13:49:12;;;;;;;11.73;6.43;;;;;;;;;;5030082;28;20107;-74
2021/09/25 13:51:38;;;;;;;9.38;5.00;;;;;;;;;;5031405;28;20469;-74
2021/09/25 13:54:04;;;;;;;9.55;5.63;;;;;;;;;;5031316;28;20030;-75
2021/09/25 13:56:29;;;;;;;6.90;5.13;;;;;;;;;;5031478;28;20107;-75
2021/09/25 13:58:55;;;;;;;11.00;5.80;;;;;;;;;;5031299;28;20370;-74
2021/09/25 14:01:23;;;;;;;12.95;6.13;;;;;;;;;;5029297;28;20029;-75
2021/09/25 14:03:48;;;;;;;10.05;5.75;;;;;;;;;;5029790;28;20029;-75
2021/09/25 14:06:14;;;;;;;10.65;5.78;;;;;;;;;;5029661;28;20103;-74
2021/09/25 14:08:41;;;;;;;18.58;10.43;;;;;;;;;;5030022;28;20037;-74
2021/09/25 14:11:08;;;;;;;10.10;5.80;;;;;;;;;;5030975;28;20021;-74
2021/09/25 14:13:38;;;;;;;9.70;5.32;;;;;;;;;;5030108;28;20078;-74
2021/09/25 14:16:08;;;;;;;13.50;5.63;;;;;;;;;;5028862;28;20057;-75
2021/09/25 14:18:33;;;;;;;9.60;5.07;;;;;;;;;;5025440;28;20478;-74
2021/09/25 14:20:59;;;;;;;8.93;4.95;;;;;;;;;;5027392;28;20079;-74
2021/09/25 14:23:24;;;;;;;12.68;6.07;;;;;;;;;;5027982;28;20022;-74
2021/09/25 14:25:50;;;;;;;9.55;5.97;;;;;;;;;;5029296;28;20377;-74
2021/09/25 14:28:16;;;;;;;9.93;5.13;;;;;;;;;;5028322;28;20041;-75
2021/09/25 14:30:42;;;;;;;11.68;5.28;;;;;;;;;;5029152;28;20027;-74
2021/09/25 14:33:08;;;;;;;7.60;4.65;;;;;;;;;;5010508;28;20113;-74
2021/09/25 14:35:34;;;;;;;14.48;5.55;;;;;;;;;;5028095;28;20045;-74